createdAt,value
2019-05-05T00:01:38.403Z,2.50
2019-05-05T00:04:11.601Z,2.67
2019-05-05T00:06:40.360Z,2.85
2019-05-05T00:09:08.940Z,2.60
2019-05-05T00:11:42.059Z,2.25
2019-05-05T00:14:28.463Z,2.20
2019-05-05T00:17:01.641Z,2.12
2019-05-05T00:19:34.014Z,2.25
2019-05-05T00:22:04.532Z,1.85
2019-05-05T00:24:35.049Z,1.98
2019-05-05T00:27:06.403Z,1.70
2019-05-05T00:29:34.701Z,1.80
2019-05-05T00:32:04.951Z,1.50
2019-05-05T00:34:36.553Z,2.20
2019-05-05T00:37:05.354Z,1.52
2019-05-05T00:39:34.561Z,1.70
2019-05-05T00:42:06.091Z,1.67
2019-05-05T00:44:38.568Z,1.87
2019-05-05T00:47:09.831Z,1.70
2019-05-05T00:49:46.470Z,1.52
2019-05-05T00:52:11.392Z,1.82
2019-05-05T00:54:40.170Z,1.77
2019-05-05T00:57:08.970Z,1.77
2019-05-05T00:59:37.735Z,1.90
2019-05-05T01:02:10.954Z,2.00
2019-05-05T01:04:41.354Z,2.30
2019-05-05T01:07:10.062Z,2.33
2019-05-05T01:09:40.162Z,1.87
2019-05-05T01:12:08.945Z,1.80
2019-05-05T01:14:38.694Z,1.98
2019-05-05T01:17:07.376Z,1.95
2019-05-05T01:19:36.535Z,1.90
2019-05-05T01:22:07.207Z,1.50
2019-05-05T01:24:35.954Z,1.50
2019-05-05T01:27:04.554Z,1.87
2019-05-05T01:29:37.055Z,1.60
2019-05-05T01:32:07.343Z,1.47
2019-05-05T01:34:44.819Z,1.98
2019-05-05T01:37:29.896Z,1.45
2019-05-05T01:40:04.974Z,1.70
2019-05-05T01:42:35.207Z,1.40
2019-05-05T01:45:04.542Z,1.60
2019-05-05T01:47:34.705Z,1.90
2019-05-05T01:50:18.387Z,1.55
2019-05-05T01:52:39.227Z,1.40
2019-05-05T01:55:10.487Z,1.98
2019-05-05T01:57:39.241Z,1.55
2019-05-05T02:00:10.611Z,1.60
2019-05-05T02:02:39.280Z,1.98
2019-05-05T02:05:08.075Z,1.55
2019-05-05T02:07:37.975Z,1.90
2019-05-05T02:10:06.800Z,1.60
2019-05-05T02:12:35.551Z,1.67
2019-05-05T02:15:05.992Z,2.27
2019-05-05T02:17:37.534Z,2.10
2019-05-05T02:20:06.723Z,2.37
2019-05-05T02:22:35.713Z,9.88
2019-05-05T02:25:06.167Z,9.10
2019-05-05T02:27:34.847Z,7.37
2019-05-05T02:30:06.533Z,4.33
2019-05-05T02:32:39.880Z,3.77
2019-05-05T02:35:10.921Z,4.75
2019-05-05T02:37:39.625Z,4.83
2019-05-05T02:40:09.716Z,5.53
2019-05-05T02:42:39.036Z,6.25
2019-05-05T02:45:10.575Z,6.53
2019-05-05T02:47:40.817Z,6.80
2019-05-05T02:50:09.604Z,7.75
2019-05-05T02:52:44.240Z,7.37
2019-05-05T02:55:17.191Z,8.60
2019-05-05T02:57:46.291Z,7.75
2019-05-05T03:00:19.376Z,7.40
2019-05-05T03:02:50.927Z,6.85
2019-05-05T03:05:19.537Z,6.37
2019-05-05T03:07:48.421Z,6.72
2019-05-05T03:10:21.200Z,7.10
2019-05-05T03:12:49.990Z,8.20
2019-05-05T03:15:20.192Z,10.30
2019-05-05T03:17:48.895Z,9.73
2019-05-05T03:20:20.231Z,9.08
2019-05-05T03:22:49.009Z,15.35
2019-05-05T03:25:18.002Z,18.40
2019-05-05T03:27:46.802Z,22.13
2019-05-05T03:30:16.700Z,15.48
2019-05-05T03:32:45.804Z,10.15
2019-05-05T03:35:14.796Z,8.33
2019-05-05T03:37:48.460Z,10.45
2019-05-05T03:42:48.542Z,16.67
2019-05-05T03:45:25.366Z,11.20
2019-05-05T03:47:57.929Z,8.13
2019-05-05T03:50:26.662Z,8.18
2019-05-05T03:52:55.361Z,6.85
2019-05-05T03:55:24.211Z,7.65
2019-05-05T03:57:55.491Z,8.90
2019-05-05T04:00:26.631Z,11.57
2019-05-05T04:02:56.947Z,10.48
2019-05-05T04:05:28.460Z,11.75
2019-05-05T04:08:00.930Z,14.20
2019-05-05T04:10:29.791Z,14.03
2019-05-05T04:12:59.665Z,11.60
2019-05-05T04:15:28.774Z,13.08
2019-05-05T04:18:03.901Z,10.78
2019-05-05T04:20:34.646Z,11.38
2019-05-05T04:23:07.217Z,11.28
2019-05-05T04:25:36.006Z,11.78
2019-05-05T04:28:05.004Z,12.13
2019-05-05T04:30:34.018Z,12.13
2019-05-05T04:33:03.771Z,12.23
2019-05-05T04:35:36.595Z,12.15
2019-05-05T04:38:09.184Z,12.60
2019-05-05T04:40:37.965Z,13.73
2019-05-05T04:43:06.734Z,12.07
2019-05-05T04:45:35.723Z,12.35
2019-05-05T04:48:06.610Z,11.50
2019-05-05T04:50:37.446Z,11.68
2019-05-05T04:53:24.103Z,10.28
2019-05-05T04:55:53.572Z,9.95
2019-05-05T04:58:24.203Z,9.70
2019-05-05T05:00:54.607Z,11.78
2019-05-05T05:03:40.689Z,11.75
2019-05-05T05:06:10.976Z,11.35
2019-05-05T05:08:39.692Z,10.88
2019-05-05T05:11:08.453Z,8.73
2019-05-05T05:13:37.134Z,10.65
2019-05-05T05:16:05.838Z,11.48
2019-05-05T05:18:34.725Z,10.58
2019-05-05T05:21:04.509Z,7.22
2019-05-05T05:23:34.061Z,7.45
2019-05-05T05:26:04.893Z,8.30
2019-05-05T05:28:34.226Z,7.62
2019-05-05T05:31:03.926Z,7.10
2019-05-05T05:33:34.440Z,6.97
2019-05-05T05:36:04.004Z,6.95
2019-05-05T05:38:35.455Z,7.08
2019-05-05T05:41:08.438Z,5.85
2019-05-05T05:43:39.890Z,4.80
2019-05-05T05:46:10.270Z,5.00
2019-05-05T05:48:46.682Z,5.35
2019-05-05T05:51:20.006Z,4.72
2019-05-05T05:53:48.689Z,7.20
2019-05-05T05:56:17.311Z,5.25
2019-05-05T05:58:45.964Z,5.92
2019-05-05T06:01:14.818Z,5.95
2019-05-05T06:03:44.367Z,5.15
2019-05-05T06:06:17.333Z,4.45
2019-05-05T06:08:47.016Z,4.70
2019-05-05T06:11:18.569Z,12.37
2019-05-05T06:13:47.646Z,8.63
2019-05-05T06:16:16.453Z,11.88
2019-05-05T06:18:47.640Z,8.13
2019-05-05T06:21:20.405Z,6.42
2019-05-05T06:23:49.093Z,7.47
2019-05-05T06:26:17.770Z,7.95
2019-05-05T06:28:46.443Z,3.80
2019-05-05T06:31:15.236Z,2.83
2019-05-05T06:33:43.962Z,3.40
2019-05-05T06:36:14.178Z,9.70
2019-05-05T06:38:43.770Z,8.58
2019-05-05T06:41:31.065Z,5.22
2019-05-05T06:44:18.785Z,4.10
2019-05-05T06:46:58.154Z,4.28
2019-05-05T06:49:26.910Z,8.23
2019-05-05T06:51:55.695Z,9.08
2019-05-05T06:54:24.551Z,3.75
2019-05-05T06:56:53.859Z,3.02
2019-05-05T06:59:28.577Z,3.40
2019-05-05T07:01:57.335Z,2.83
2019-05-05T07:04:25.998Z,3.83
2019-05-05T07:06:57.157Z,8.20
2019-05-05T07:09:26.014Z,6.95
2019-05-05T07:11:58.675Z,3.80
2019-05-05T07:14:27.303Z,3.40
2019-05-05T07:16:56.396Z,2.90
2019-05-05T07:19:25.283Z,3.12
2019-05-05T07:21:54.365Z,2.47
2019-05-05T07:24:23.845Z,2.00
2019-05-05T07:26:54.115Z,3.00
2019-05-05T07:29:23.882Z,3.85
2019-05-05T07:31:54.601Z,4.80
2019-05-05T07:34:24.264Z,4.90
2019-05-05T07:36:56.394Z,4.08
2019-05-05T07:39:25.103Z,3.25
2019-05-05T07:41:54.294Z,4.70
2019-05-05T07:44:29.524Z,5.75
2019-05-05T07:46:55.995Z,4.97
2019-05-05T07:49:24.778Z,2.87
2019-05-05T07:51:54.651Z,2.47
2019-05-05T07:54:24.168Z,2.10
2019-05-05T07:56:53.809Z,2.40
2019-05-05T07:59:23.782Z,2.15
2019-05-05T08:01:54.714Z,1.95
2019-05-05T08:04:24.251Z,1.57
2019-05-05T08:06:53.896Z,1.65
2019-05-05T08:09:24.698Z,11.93
2019-05-05T08:11:54.218Z,6.00
2019-05-05T08:14:24.529Z,3.17
2019-05-05T08:17:11.819Z,1.70
2019-05-05T08:19:43.387Z,1.70
2019-05-05T08:22:14.179Z,1.80
2019-05-05T08:24:56.014Z,1.60
2019-05-05T08:27:26.313Z,1.82
2019-05-05T08:30:13.967Z,1.70
2019-05-05T08:32:43.724Z,1.67
2019-05-05T08:35:14.684Z,2.00
2019-05-05T08:37:43.594Z,1.67
2019-05-05T08:40:14.679Z,1.85
2019-05-05T08:42:44.546Z,2.12
2019-05-05T08:45:13.873Z,1.77
2019-05-05T08:47:43.575Z,1.90
2019-05-05T08:50:13.710Z,1.80
2019-05-05T08:52:44.461Z,2.08
2019-05-05T08:55:13.943Z,2.22
2019-05-05T08:57:44.668Z,2.05
2019-05-05T09:00:15.912Z,2.12
2019-05-05T09:02:44.579Z,2.50
2019-05-05T09:05:14.433Z,2.75
2019-05-05T09:07:44.121Z,2.85
2019-05-05T09:10:14.238Z,2.08
2019-05-05T09:12:43.685Z,2.45
2019-05-05T09:15:13.695Z,2.40
2019-05-05T09:17:44.016Z,2.00
2019-05-05T09:20:13.680Z,2.00
2019-05-05T09:22:44.439Z,2.90
2019-05-05T09:25:14.539Z,4.08
2019-05-05T09:27:47.594Z,3.30
2019-05-05T09:30:17.935Z,3.25
2019-05-05T09:32:46.705Z,3.00
2019-05-05T09:35:15.491Z,2.58
2019-05-05T09:37:44.479Z,3.15
2019-05-05T09:40:13.884Z,3.60
2019-05-05T09:42:44.284Z,4.62
2019-05-05T09:45:13.993Z,2.83
2019-05-05T09:47:45.653Z,2.60
2019-05-05T09:50:14.528Z,2.45
2019-05-05T09:52:44.316Z,2.87
2019-05-05T09:55:14.214Z,3.50
2019-05-05T09:57:44.618Z,2.62
2019-05-05T10:00:14.724Z,2.75
2019-05-05T10:02:46.289Z,2.80
2019-05-05T10:05:15.212Z,2.85
2019-05-05T10:07:44.771Z,2.10
2019-05-05T10:10:15.340Z,3.50
2019-05-05T10:12:44.542Z,2.83
2019-05-05T10:15:13.957Z,2.52
2019-05-05T10:17:42.920Z,2.20
2019-05-05T10:20:11.935Z,2.22
2019-05-05T10:22:40.681Z,2.25
2019-05-05T10:25:27.902Z,4.05
2019-05-05T10:27:56.922Z,3.05
2019-05-05T10:30:25.678Z,2.40
2019-05-05T10:32:54.623Z,2.60
2019-05-05T10:35:23.846Z,2.75
2019-05-05T10:37:55.281Z,3.42
2019-05-05T10:40:33.974Z,2.77
2019-05-05T10:43:04.418Z,2.05
2019-05-05T10:45:33.668Z,2.05
2019-05-05T10:48:06.402Z,2.20
2019-05-05T10:50:38.846Z,10.37
2019-05-05T10:53:13.654Z,8.08
2019-05-05T10:55:45.059Z,2.42
2019-05-05T10:58:14.011Z,11.60
2019-05-05T11:00:49.224Z,7.83
2019-05-05T11:03:17.924Z,5.60
2019-05-05T11:05:50.508Z,2.17
2019-05-05T11:08:24.057Z,1.27
2019-05-05T11:10:53.229Z,1.98
2019-05-05T11:13:24.632Z,2.27
2019-05-05T11:15:55.978Z,1.15
2019-05-05T11:18:24.867Z,2.55
2019-05-05T11:20:57.591Z,1.25
2019-05-05T11:23:26.433Z,3.23
2019-05-05T11:25:55.333Z,1.00
2019-05-05T11:28:28.223Z,0.95
2019-05-05T11:30:56.995Z,0.82
2019-05-05T11:33:43.735Z,1.40
2019-05-05T11:36:15.168Z,0.80
2019-05-05T11:38:44.548Z,0.78
2019-05-05T11:41:14.421Z,4.20
2019-05-05T11:43:43.486Z,2.22
2019-05-05T11:46:14.333Z,0.75
2019-05-05T11:48:43.886Z,0.90
2019-05-05T11:51:14.896Z,1.80
2019-05-05T11:53:44.702Z,1.25
2019-05-05T11:56:21.734Z,0.80
2019-05-05T11:58:54.670Z,1.27
2019-05-05T12:01:28.034Z,1.72
2019-05-05T12:03:54.889Z,1.37
2019-05-05T12:06:24.701Z,3.35
2019-05-05T12:08:56.139Z,2.95
2019-05-05T12:11:25.137Z,0.98
2019-05-05T12:13:54.598Z,2.40
2019-05-05T12:16:31.076Z,0.95
2019-05-05T12:19:01.216Z,1.15
2019-05-05T12:21:29.901Z,3.20
2019-05-05T12:24:00.217Z,3.08
2019-05-05T12:26:49.062Z,1.65
2019-05-05T12:29:18.087Z,1.00
2019-05-05T12:31:48.100Z,0.70
2019-05-05T12:34:19.335Z,0.98
2019-05-05T12:36:48.103Z,0.50
2019-05-05T12:39:16.842Z,1.10
2019-05-05T12:41:47.111Z,1.57
2019-05-05T12:44:17.355Z,0.90
2019-05-05T12:47:00.150Z,1.40
2019-05-05T12:49:29.866Z,0.85
2019-05-05T12:51:58.569Z,0.70
2019-05-05T12:54:27.234Z,0.68
2019-05-05T12:56:56.026Z,3.00
2019-05-05T12:59:26.085Z,1.60
2019-05-05T13:01:55.362Z,1.82
2019-05-05T13:04:24.551Z,3.12
2019-05-05T13:06:54.355Z,1.00
2019-05-05T13:09:24.371Z,0.90
2019-05-05T13:11:58.312Z,1.67
2019-05-05T13:16:57.032Z,2.12
2019-05-05T13:19:27.304Z,0.68
2019-05-05T13:22:03.525Z,2.30
2019-05-05T13:24:36.158Z,0.80
2019-05-05T13:27:09.617Z,1.25
2019-05-05T13:29:36.775Z,0.65
2019-05-05T13:32:05.494Z,0.70
2019-05-05T13:34:36.923Z,0.90
2019-05-05T13:37:05.815Z,2.25
2019-05-05T13:39:36.439Z,0.62
2019-05-05T13:42:07.470Z,1.50
2019-05-05T13:44:49.795Z,0.50
2019-05-05T13:47:18.476Z,0.85
2019-05-05T13:49:47.164Z,1.75
2019-05-05T13:52:15.857Z,1.10
2019-05-05T13:54:44.519Z,1.10
2019-05-05T13:57:15.376Z,1.07
2019-05-05T13:59:44.648Z,1.30
2019-05-05T14:02:13.779Z,2.08
2019-05-05T14:04:43.798Z,1.02
2019-05-05T14:07:12.753Z,1.02
2019-05-05T14:09:41.452Z,1.32
2019-05-05T14:12:10.154Z,0.75
2019-05-05T14:14:44.041Z,1.00
2019-05-05T14:17:14.621Z,0.88
2019-05-05T14:19:44.571Z,0.93
2019-05-05T14:22:13.387Z,0.80
2019-05-05T14:24:49.337Z,0.70
2019-05-05T14:27:18.031Z,0.62
2019-05-05T14:30:01.196Z,0.88
2019-05-05T14:32:31.521Z,0.80
2019-05-05T14:35:03.845Z,1.25
2019-05-05T14:37:40.495Z,1.00
2019-05-05T14:40:09.464Z,1.20
2019-05-05T14:42:40.969Z,0.78
2019-05-05T14:45:11.271Z,1.50
2019-05-05T14:47:39.920Z,0.85
2019-05-05T14:50:10.814Z,1.32
2019-05-05T14:52:39.505Z,1.42
2019-05-05T14:55:10.728Z,1.32
2019-05-05T14:57:39.495Z,0.90
2019-05-05T15:00:11.382Z,0.82
2019-05-05T15:02:40.069Z,2.62
2019-05-05T15:05:30.228Z,3.58
2019-05-05T15:08:00.472Z,1.17
2019-05-05T15:10:34.320Z,3.42
2019-05-05T15:13:04.810Z,1.50
2019-05-05T15:15:33.676Z,2.72
2019-05-05T15:18:03.966Z,4.60
2019-05-05T15:20:33.801Z,1.70
2019-05-05T15:23:04.789Z,1.85
2019-05-05T15:25:34.146Z,3.05
2019-05-05T15:28:04.718Z,1.52
2019-05-05T15:30:33.485Z,2.70
2019-05-05T15:33:04.504Z,1.85
2019-05-05T15:35:33.951Z,3.22
2019-05-05T15:38:04.470Z,5.28
2019-05-05T15:40:35.826Z,4.47
2019-05-05T15:43:05.612Z,4.60
2019-05-05T15:45:36.939Z,3.80
2019-05-05T15:48:06.261Z,3.60
2019-05-05T15:50:34.938Z,5.20
2019-05-05T15:53:06.830Z,3.60
2019-05-05T15:55:35.495Z,3.17
2019-05-05T15:58:04.203Z,3.20
2019-05-05T16:00:33.756Z,2.30
2019-05-05T16:03:04.254Z,3.55
2019-05-05T16:05:34.483Z,2.25
2019-05-05T16:08:04.528Z,2.85
2019-05-05T16:10:34.718Z,3.40
2019-05-05T16:13:08.952Z,3.05
2019-05-05T16:18:13.763Z,3.00
2019-05-05T16:20:54.642Z,3.08
2019-05-05T16:23:38.041Z,3.92
2019-05-05T16:26:06.812Z,4.67
2019-05-05T16:28:35.610Z,13.25
2019-05-05T16:31:05.541Z,6.65
2019-05-05T16:33:34.402Z,4.60
2019-05-05T16:36:14.127Z,3.40
2019-05-05T16:38:43.596Z,7.45
2019-05-05T16:41:15.084Z,4.30
2019-05-05T16:43:44.221Z,3.50
2019-05-05T16:46:16.737Z,3.12
2019-05-05T16:48:43.968Z,3.70
2019-05-05T16:51:14.482Z,3.45
2019-05-05T16:53:44.285Z,3.12
2019-05-05T16:56:14.876Z,2.87
2019-05-05T16:58:45.085Z,4.10
2019-05-05T17:01:15.912Z,3.33
2019-05-05T17:03:45.844Z,2.80
2019-05-05T17:06:16.066Z,2.62
2019-05-05T17:08:45.332Z,2.50
2019-05-05T17:11:17.122Z,2.37
2019-05-05T17:13:50.825Z,2.40
2019-05-05T17:19:13.790Z,3.20
2019-05-05T17:21:53.618Z,2.65
2019-05-05T17:24:23.997Z,3.10
2019-05-05T17:26:54.945Z,2.90
2019-05-05T17:29:23.597Z,2.95
2019-05-05T17:31:53.987Z,3.10
2019-05-05T17:34:24.500Z,2.30
2019-05-05T17:36:53.605Z,2.72
2019-05-05T17:39:23.754Z,30.32
2019-05-05T17:41:54.201Z,152.32
2019-05-05T17:44:24.505Z,402.90
2019-05-05T17:46:54.856Z,10.13
2019-05-05T17:49:34.882Z,4.10
2019-05-05T17:52:07.689Z,21.30
2019-05-05T17:54:37.900Z,17.03
2019-05-05T17:57:06.666Z,15.55
2019-05-05T17:59:35.957Z,12.35
2019-05-05T18:02:04.912Z,9.28
2019-05-05T18:04:34.579Z,5.45
2019-05-05T18:07:04.833Z,10.25
2019-05-05T18:09:51.188Z,9.00
2019-05-05T18:12:23.478Z,6.87
2019-05-05T18:14:56.254Z,9.50
2019-05-05T18:17:24.940Z,6.30
2019-05-05T18:19:53.685Z,6.03
2019-05-05T18:22:24.569Z,7.22
2019-05-05T18:24:54.065Z,7.50
2019-05-05T18:27:23.683Z,6.95
2019-05-05T18:29:54.462Z,7.72
2019-05-05T18:32:23.623Z,8.00
2019-05-05T18:34:54.523Z,7.47
2019-05-05T18:37:24.176Z,7.28
2019-05-05T18:39:54.644Z,6.62
2019-05-05T18:42:24.737Z,5.72
2019-05-05T18:44:55.105Z,5.55
2019-05-05T18:47:25.063Z,7.08
2019-05-05T18:49:54.170Z,6.37
2019-05-05T18:52:24.538Z,6.50
2019-05-05T18:54:54.416Z,6.55
2019-05-05T18:57:24.670Z,7.05
2019-05-05T18:59:54.247Z,6.40
2019-05-05T19:02:30.641Z,7.25
2019-05-05T19:05:14.004Z,6.95
2019-05-05T19:07:55.991Z,7.30
2019-05-05T19:10:24.230Z,8.10
2019-05-05T19:12:54.102Z,12.15
2019-05-05T19:15:24.391Z,18.85
2019-05-05T19:17:55.415Z,19.82
2019-05-05T19:20:27.640Z,21.90
2019-05-05T19:22:57.516Z,23.32
2019-05-05T19:25:26.418Z,23.07
2019-05-05T19:27:55.927Z,20.57
2019-05-05T19:30:25.643Z,20.30
2019-05-05T19:32:54.724Z,19.40
2019-05-05T19:35:25.011Z,18.15
2019-05-05T19:37:54.629Z,16.48
2019-05-05T19:40:24.356Z,22.77
2019-05-05T19:42:53.828Z,23.87
2019-05-05T19:45:24.090Z,23.22
2019-05-05T19:47:53.254Z,24.70
2019-05-05T19:50:24.406Z,22.90
2019-05-05T19:52:53.890Z,21.97
2019-05-05T19:55:22.897Z,20.92
2019-05-05T19:57:55.365Z,22.32
2019-05-05T20:00:26.349Z,21.77
2019-05-05T20:03:04.437Z,24.05
2019-05-05T20:05:28.201Z,28.38
2019-05-05T20:07:56.981Z,34.38
2019-05-05T20:10:25.757Z,43.33
2019-05-05T20:12:54.466Z,44.20
2019-05-05T20:15:24.766Z,43.68
2019-05-05T20:17:55.758Z,43.05
2019-05-05T20:20:24.367Z,46.02
2019-05-05T20:22:54.787Z,47.23
2019-05-05T20:25:24.382Z,48.28
2019-05-05T20:27:55.776Z,50.33
2019-05-05T20:30:24.673Z,49.93
2019-05-05T20:32:56.321Z,48.40
2019-05-05T20:35:35.889Z,43.40
2019-05-05T20:38:14.158Z,42.20
2019-05-05T20:40:44.909Z,41.13
2019-05-05T20:43:14.357Z,41.95
2019-05-05T20:45:45.444Z,41.45
2019-05-05T20:48:14.149Z,38.90
2019-05-05T20:50:43.916Z,39.88
2019-05-05T20:53:13.643Z,40.88
2019-05-05T20:55:44.607Z,39.23
2019-05-05T20:58:16.763Z,40.45
2019-05-05T21:00:45.451Z,38.30
2019-05-05T21:03:14.875Z,38.48
2019-05-05T21:05:44.166Z,39.50
2019-05-05T21:08:16.616Z,39.98
2019-05-05T21:10:45.554Z,42.83
2019-05-05T21:13:14.517Z,42.08
2019-05-05T21:15:45.021Z,42.70
2019-05-05T21:18:14.457Z,43.65
2019-05-05T21:20:43.874Z,44.98
2019-05-05T21:23:17.051Z,50.03
2019-05-05T21:25:53.916Z,55.17
2019-05-05T21:28:24.085Z,58.95
2019-05-05T21:30:53.991Z,53.28
2019-05-05T21:33:23.944Z,53.75
2019-05-05T21:35:55.092Z,48.15
2019-05-05T21:38:23.367Z,44.08
2019-05-05T21:40:52.558Z,46.08
2019-05-05T21:43:21.694Z,44.33
2019-05-05T21:45:50.545Z,42.62
2019-05-05T21:48:20.271Z,43.55
2019-05-05T21:50:50.578Z,45.30
2019-05-05T21:53:20.812Z,43.92
2019-05-05T21:55:51.117Z,48.48
2019-05-05T21:58:23.292Z,51.28
2019-05-05T22:00:54.835Z,51.08
2019-05-05T22:03:39.499Z,55.03
2019-05-05T22:06:10.661Z,55.83
2019-05-05T22:08:39.338Z,58.13
2019-05-05T22:11:08.113Z,60.03
2019-05-05T22:13:36.848Z,59.35
2019-05-05T22:16:05.957Z,58.08
2019-05-05T22:18:35.104Z,59.85
2019-05-05T22:21:05.416Z,64.90
2019-05-05T22:23:36.755Z,62.17
2019-05-05T22:26:05.691Z,62.48
2019-05-05T22:28:34.561Z,63.17
2019-05-05T22:31:04.679Z,63.42
2019-05-05T22:33:34.157Z,65.45
2019-05-05T22:36:04.500Z,60.78
2019-05-05T22:38:34.126Z,61.65
2019-05-05T22:41:03.185Z,62.62
2019-05-05T22:43:34.534Z,62.50
2019-05-05T22:46:03.587Z,61.68
2019-05-05T22:48:34.539Z,62.20
2019-05-05T22:51:04.438Z,59.42
2019-05-05T22:53:34.646Z,60.43
2019-05-05T22:56:05.895Z,58.92
2019-05-05T22:58:37.531Z,58.95
2019-05-05T23:01:05.260Z,59.67
2019-05-05T23:03:55.304Z,57.98
2019-05-05T23:06:41.029Z,58.92
2019-05-05T23:09:11.508Z,58.73
2019-05-05T23:11:40.161Z,60.58
2019-05-05T23:14:26.669Z,61.42
2019-05-05T23:16:57.213Z,60.83
2019-05-05T23:19:29.340Z,59.90
2019-05-05T23:22:03.413Z,68.25
2019-05-05T23:24:40.164Z,73.52
2019-05-05T23:27:10.447Z,78.22
2019-05-05T23:29:39.051Z,74.97
2019-05-05T23:32:08.040Z,70.50
2019-05-05T23:34:36.747Z,68.55
2019-05-05T23:37:11.415Z,69.53
2019-05-05T23:39:43.818Z,77.35
2019-05-05T23:42:14.742Z,77.27
2019-05-05T23:44:46.640Z,78.45
2019-05-05T23:47:17.307Z,75.57
2019-05-05T23:49:48.338Z,68.15
2019-05-05T23:52:17.378Z,66.85
2019-05-05T23:54:46.467Z,59.00
2019-05-05T23:57:17.498Z,61.23
2019-05-05T23:59:46.548Z,59.70
